Time;durP1;ratioP1;P1;durP2;ratioP2;P2;SDS_P1;SDS_P2;PMS_P1;PMS_P2;Temp;Humidity;BMP_temperature;BMP_pressure;BME280_temperature;BME280_humidity;BME280_pressure;Samples;Min_cycle;Max_cycle;Signal;HPM_P1;HPM_P2
2021/10/25 07:04:42;;;;;;;9.13;3.60;;;17.60;67.90;;;;;;4715486;30;20060;-70
2021/10/25 07:07:08;;;;;;;4.75;3.35;;;17.70;67.50;;;;;;4721195;30;20166;-72
2021/10/25 07:09:33;;;;;;;10.65;3.47;;;17.80;67.60;;;;;;4720507;30;20089;-71
2021/10/25 07:11:59;;;;;;;10.55;3.67;;;17.80;67.60;;;;;;4721056;30;20059;-72
2021/10/25 07:14:33;;;;;;;11.05;3.75;;;17.90;67.20;;;;;;4721151;30;20377;-71
2021/10/25 07:17:36;;;;;;;;;;;18.00;67.50;;;;;;4721700;30;20061;-72
2021/10/25 08:06:21;;;;;;;11.80;4.68;;;18.50;65.40;;;;;;4720695;30;20057;-77
2021/10/25 08:11:13;;;;;;;7.75;4.80;;;18.60;65.40;;;;;;4720236;30;20061;-77
2021/10/25 08:13:41;;;;;;;11.75;3.75;;;18.60;65.30;;;;;;4720224;30;20428;-76
2021/10/25 08:21:15;;;;;;;6.32;4.25;;;18.60;65.30;;;;;;4719823;30;20053;-77
2021/10/25 08:23:41;;;;;;;8.23;3.85;;;18.60;65.40;;;;;;4720337;30;20056;-74
2021/10/25 08:26:11;;;;;;;10.05;4.05;;;18.60;65.40;;;;;;4720160;30;20049;-75
2021/10/25 08:28:37;;;;;;;8.57;4.45;;;18.50;65.30;;;;;;4719465;30;20115;-74
2021/10/25 08:31:06;;;;;;;7.15;4.50;;;18.50;65.40;;;;;;4720491;30;20438;-77
2021/10/25 08:41:29;;;;;;;13.32;4.55;;;18.40;65.90;;;;;;4719490;30;20057;-75
2021/10/25 08:43:56;;;;;;;12.52;4.30;;;18.40;66.00;;;;;;4719319;30;20487;-78
2021/10/25 08:46:25;;;;;;;15.73;4.20;;;18.40;66.30;;;;;;4718993;30;20063;-75
2021/10/25 08:48:51;;;;;;;19.80;4.60;;;18.40;66.40;;;;;;4719626;30;20091;-75
2021/10/25 08:51:18;;;;;;;16.27;3.83;;;18.40;66.50;;;;;;4719667;30;20533;-75
2021/10/25 08:53:44;;;;;;;12.18;4.18;;;18.40;67.10;;;;;;4719718;30;20053;-78
2021/10/25 08:56:17;;;;;;;12.43;4.00;;;18.40;66.70;;;;;;4704087;30;20061;-77
2021/10/25 08:58:49;;;;;;;12.63;4.45;;;18.40;66.90;;;;;;4719055;30;20060;-77
2021/10/25 09:01:34;;;;;;;10.10;3.88;;;18.40;66.80;;;;;;4719089;30;20053;-77
2021/10/25 09:04:11;;;;;;;9.98;4.05;;;18.40;66.80;;;;;;4718874;30;20485;-77
2021/10/25 09:06:58;;;;;;;11.30;4.10;;;18.40;67.00;;;;;;4719267;30;20045;-78
2021/10/25 09:09:25;;;;;;;18.02;3.97;;;18.40;66.90;;;;;;4719616;30;20381;-75
2021/10/25 09:12:18;;;;;;;10.85;4.15;;;18.40;66.70;;;;;;4719590;30;20057;-75
2021/10/25 09:14:44;;;;;;;15.60;4.47;;;18.40;66.90;;;;;;4716711;30;20147;-75
2021/10/25 09:17:12;;;;;;;21.25;4.50;;;18.40;66.90;;;;;;4719045;30;20072;-76
2021/10/25 09:19:39;;;;;;;13.38;4.20;;;18.40;67.20;;;;;;4718980;30;20065;-74
2021/10/25 09:22:10;;;;;;;17.42;4.28;;;18.40;67.40;;;;;;4719041;30;20457;-75
2021/10/25 09:24:36;;;;;;;14.65;4.18;;;18.40;67.50;;;;;;4719591;30;20049;-75
2021/10/25 09:27:06;;;;;;;19.83;4.63;;;18.40;67.60;;;;;;4719337;30;20068;-75
2021/10/25 09:29:34;;;;;;;18.48;4.57;;;18.40;67.60;;;;;;4725283;30;20139;-75
2021/10/25 09:32:10;;;;;;;16.30;5.70;;;18.40;67.90;;;;;;4730665;30;20056;-75
2021/10/25 09:34:45;;;;;;;15.85;5.25;;;18.40;67.70;;;;;;4725066;30;20103;-74
2021/10/25 09:37:16;;;;;;;14.98;4.85;;;18.30;67.30;;;;;;4718547;30;20056;-76
2021/10/25 09:39:59;;;;;;;17.20;4.65;;;18.30;67.10;;;;;;4718792;30;20527;-75
2021/10/25 09:50:54;;;;;;;17.63;5.43;;;18.20;67.20;;;;;;4718915;30;20057;-77
2021/10/25 09:53:35;;;;;;;18.77;5.45;;;18.20;67.10;;;;;;4726821;30;20056;-78
2021/10/25 09:56:01;;;;;;;19.80;5.07;;;18.20;66.90;;;;;;4717648;30;20053;-78
2021/10/25 09:58:41;;;;;;;18.45;4.43;;;18.20;67.40;;;;;;4737279;30;20105;-80
2021/10/25 10:01:07;;;;;;;16.83;4.50;;;18.20;67.60;;;;;;4738787;30;20056;-78
2021/10/25 10:03:33;;;;;;;12.70;5.60;;;18.20;67.60;;;;;;4706714;30;20094;-79
2021/10/25 10:06:00;;;;;;;21.38;5.57;;;18.00;66.90;;;;;;4721037;30;20057;-78
2021/10/25 10:08:27;;;;;;;17.75;4.15;;;18.10;67.60;;;;;;4706962;30;20150;-77
2021/10/25 10:10:54;;;;;;;15.00;4.00;;;18.10;67.80;;;;;;4722248;30;20131;-79
2021/10/25 10:13:23;;;;;;;20.33;4.80;;;18.20;68.20;;;;;;4706783;30;20063;-78
2021/10/25 10:15:50;;;;;;;12.73;3.88;;;18.20;68.50;;;;;;4721877;30;20065;-78
2021/10/25 10:18:28;;;;;;;11.90;3.22;;;18.10;68.60;;;;;;4721514;30;20474;-78
2021/10/25 10:21:00;;;;;;;13.15;3.40;;;18.20;69.10;;;;;;4706930;30;20068;-80
2021/10/25 10:23:26;;;;;;;11.53;3.70;;;18.20;69.00;;;;;;4721874;30;20076;-78
2021/10/25 10:26:00;;;;;;;12.18;3.53;;;18.20;68.90;;;;;;4722028;30;20057;-73
2021/10/25 10:28:40;;;;;;;11.90;3.20;;;18.20;69.10;;;;;;4720871;30;20056;-76
2021/10/25 10:31:14;;;;;;;9.18;3.33;;;18.10;68.90;;;;;;4721796;30;20049;-76
2021/10/25 10:33:54;;;;;;;14.75;4.05;;;18.10;69.50;;;;;;4704430;30;20080;-75
2021/10/25 10:36:27;;;;;;;17.15;4.03;;;18.10;69.40;;;;;;4704339;30;20133;-74
2021/10/25 10:39:07;;;;;;;12.63;3.90;;;18.00;69.50;;;;;;4704229;30;20104;-78
2021/10/25 10:41:42;;;;;;;12.73;3.60;;;18.00;69.70;;;;;;4704232;30;20124;-75
2021/10/25 10:44:14;;;;;;;10.20;6.03;;;17.90;69.80;;;;;;4704277;30;20045;-71
2021/10/25 10:46:52;;;;;;;15.65;6.63;;;17.90;70.70;;;;;;4704046;30;20060;-77
2021/10/25 10:49:19;;;;;;;12.40;6.57;;;18.00;71.20;;;;;;4704012;30;20339;-76
2021/10/25 10:52:00;;;;;;;13.43;7.18;;;18.00;71.60;;;;;;4704149;30;20050;-76
2021/10/25 10:54:25;;;;;;;18.65;6.38;;;18.00;72.30;;;;;;4727353;30;20544;-77
2021/10/25 10:57:06;;;;;;;18.90;6.63;;;18.00;71.90;;;;;;4739047;30;20131;-73
2021/10/25 10:59:36;;;;;;;15.63;6.35;;;18.00;71.40;;;;;;4738454;30;20487;-79
2021/10/25 11:02:05;;;;;;;13.05;6.05;;;18.10;71.10;;;;;;4732551;30;20057;-74
2021/10/25 11:04:33;;;;;;;12.85;5.60;;;18.10;70.60;;;;;;4720357;30;20064;-72
2021/10/25 11:07:01;;;;;;;13.63;6.38;;;18.10;70.30;;;;;;4738049;30;20056;-73
2021/10/25 11:09:31;;;;;;;8.35;5.35;;;18.10;70.50;;;;;;4738915;30;20516;-76
2021/10/25 11:12:05;;;;;;;10.75;5.43;;;18.10;70.20;;;;;;4738964;30;20369;-75
2021/10/25 11:14:34;;;;;;;9.05;5.43;;;18.10;69.90;;;;;;4738712;30;20060;-73
2021/10/25 11:17:20;;;;;;;9.82;5.57;;;18.10;69.90;;;;;;4738808;30;20044;-77
2021/10/25 11:19:48;;;;;;;10.80;6.25;;;18.10;69.70;;;;;;4738496;30;20065;-73
2021/10/25 11:22:34;;;;;;;7.90;6.20;;;18.10;70.50;;;;;;4738232;30;20049;-74
2021/10/25 11:25:03;;;;;;;16.42;5.95;;;18.10;70.90;;;;;;4738353;30;20144;-73
2021/10/25 11:27:31;;;;;;;9.80;5.28;;;18.00;70.80;;;;;;4738580;30;20135;-73
2021/10/25 11:30:19;;;;;;;12.35;5.50;;;17.90;71.10;;;;;;4738466;30;20095;-73
2021/10/25 11:32:45;;;;;;;11.68;6.07;;;17.90;71.30;;;;;;4724521;30;20056;-74
2021/10/25 11:35:14;;;;;;;10.88;5.10;;;17.80;71.60;;;;;;4721086;30;20061;-73
2021/10/25 11:37:48;;;;;;;9.77;5.30;;;17.80;72.00;;;;;;4720734;30;20045;-73
2021/10/25 11:40:18;;;;;;;11.95;4.70;;;17.80;72.00;;;;;;4720844;30;20049;-74
2021/10/25 11:42:45;;;;;;;8.25;4.80;;;17.70;72.00;;;;;;4720040;30;20096;-73
2021/10/25 11:45:24;;;;;;;11.48;4.80;;;17.70;72.00;;;;;;4720102;30;20060;-74
2021/10/25 11:47:52;;;;;;;10.70;4.55;;;17.70;72.10;;;;;;4720539;30;20053;-74
2021/10/25 11:50:26;;;;;;;15.48;5.57;;;17.70;72.50;;;;;;4721045;30;20060;-74
2021/10/25 11:53:02;;;;;;;13.60;4.97;;;17.70;72.80;;;;;;4729501;30;20057;-74
2021/10/25 11:55:46;;;;;;;11.20;5.05;;;17.60;72.50;;;;;;4737454;30;20115;-74
2021/10/25 11:58:14;;;;;;;;;;;17.70;72.50;;;;;;4738069;30;20057;-75
2021/10/25 12:00:44;;;;;;;14.07;5.10;;;17.60;72.60;;;;;;4737679;30;19927;-73
2021/10/25 12:03:12;;;;;;;15.07;4.75;;;17.60;72.90;;;;;;4720941;30;20461;-74
2021/10/25 12:05:38;;;;;;;8.93;4.50;;;17.60;73.10;;;;;;4727530;30;20136;-75
2021/10/25 12:08:08;;;;;;;9.60;4.88;;;17.60;73.10;;;;;;4728151;30;20076;-74
2021/10/25 12:10:35;;;;;;;9.93;5.13;;;17.60;73.10;;;;;;4719925;30;20128;-74
2021/10/25 12:13:02;;;;;;;13.40;4.25;;;17.60;73.10;;;;;;4720298;30;20130;-74
2021/10/25 12:15:31;;;;;;;9.57;4.72;;;17.60;73.20;;;;;;4718903;30;20061;-74
2021/10/25 12:18:07;;;;;;;7.78;5.13;;;17.60;72.90;;;;;;4719639;30;20053;-75
2021/10/25 12:20:39;;;;;;;9.98;4.72;;;17.60;72.50;;;;;;4719794;30;20083;-75
2021/10/25 12:23:14;;;;;;;9.85;5.32;;;17.60;72.60;;;;;;4719629;30;20458;-74
2021/10/25 12:25:40;;;;;;;8.68;5.38;;;17.60;72.60;;;;;;4719330;30;20045;-74
2021/10/25 12:28:20;;;;;;;8.00;4.78;;;17.60;72.70;;;;;;4719419;30;20045;-75
2021/10/25 12:30:50;;;;;;;7.82;4.97;;;17.70;72.60;;;;;;4718944;30;20049;-75
2021/10/25 12:33:20;;;;;;;8.82;5.38;;;17.80;72.60;;;;;;4716366;30;20119;-75
2021/10/25 12:35:48;;;;;;;6.32;4.28;;;17.60;72.10;;;;;;4720150;30;20053;-75
2021/10/25 12:38:17;;;;;;;17.98;8.13;;;17.70;72.50;;;;;;4719536;30;20095;-75
2021/10/25 12:40:52;;;;;;;22.92;11.20;;;17.80;72.40;;;;;;4719594;30;20048;-74
2021/10/25 12:43:20;;;;;;;23.75;10.25;;;17.90;71.80;;;;;;4719327;30;20140;-75
2021/10/25 12:46:02;;;;;;;16.70;8.15;;;18.00;71.30;;;;;;4725429;30;20376;-76
2021/10/25 12:48:43;;;;;;;16.92;9.40;;;18.00;70.20;;;;;;4736880;30;20052;-78
2021/10/25 12:51:10;;;;;;;19.52;8.88;;;18.10;71.20;;;;;;4737134;30;20380;-75
2021/10/25 12:53:40;;;;;;;19.90;8.50;;;18.20;71.10;;;;;;4700837;30;20096;-77
2021/10/25 12:56:07;;;;;;;21.58;8.52;;;18.20;71.10;;;;;;4719270;30;20089;-78
2021/10/25 12:58:33;;;;;;;21.58;9.90;;;18.30;71.10;;;;;;4719520;30;20057;-75
2021/10/25 13:01:08;;;;;;;16.52;7.68;;;18.30;71.00;;;;;;4717544;30;20154;-75
2021/10/25 13:03:35;;;;;;;14.20;8.10;;;18.40;70.80;;;;;;4719257;30;20065;-75
2021/10/25 13:06:08;;;;;;;21.70;8.23;;;18.40;71.00;;;;;;4718985;30;20478;-75
2021/10/25 13:08:35;;;;;;;19.63;8.23;;;18.40;70.90;;;;;;4719102;30;20053;-76
2021/10/25 13:11:01;;;;;;;16.55;7.63;;;18.40;71.10;;;;;;4719148;30;20065;-73
2021/10/25 13:13:32;;;;;;;18.70;8.15;;;18.40;71.00;;;;;;4719744;30;20068;-77
2021/10/25 13:15:58;;;;;;;22.85;7.78;;;18.40;71.10;;;;;;4719097;30;20057;-76
2021/10/25 13:18:24;;;;;;;19.65;7.70;;;18.40;71.20;;;;;;4719394;30;20049;-77
2021/10/25 13:20:50;;;;;;;23.60;8.82;;;18.50;71.30;;;;;;4719276;30;20072;-77
2021/10/25 13:23:15;;;;;;;22.90;8.20;;;18.50;71.40;;;;;;4719137;30;20061;-76
2021/10/25 13:25:42;;;;;;;18.83;7.65;;;18.40;71.40;;;;;;4719324;30;20095;-76
2021/10/25 13:28:08;;;;;;;19.15;7.15;;;18.50;71.20;;;;;;4718390;30;20049;-76
2021/10/25 13:30:36;;;;;;;22.38;7.72;;;18.60;71.20;;;;;;4719237;30;20053;-75
2021/10/25 13:33:02;;;;;;;19.30;7.38;;;18.60;71.20;;;;;;4718985;30;20057;-77
2021/10/25 13:35:29;;;;;;;22.58;7.53;;;18.60;71.10;;;;;;4719085;30;20151;-75
2021/10/25 13:37:56;;;;;;;20.05;7.93;;;18.70;71.00;;;;;;4704554;30;20060;-75
2021/10/25 13:40:27;;;;;;;16.58;6.90;;;18.70;71.00;;;;;;4719072;30;20060;-75
2021/10/25 13:42:54;;;;;;;17.90;7.43;;;18.70;70.90;;;;;;4718980;30;20244;-76
2021/10/25 13:45:20;;;;;;;20.20;8.10;;;18.80;70.90;;;;;;4718951;30;20057;-74
2021/10/25 13:47:47;;;;;;;16.45;7.63;;;18.90;70.90;;;;;;4719099;30;20462;-74
2021/10/25 13:50:13;;;;;;;21.20;7.45;;;18.90;70.90;;;;;;4718587;30;20061;-73
2021/10/25 13:52:38;;;;;;;27.95;7.72;;;18.90;70.80;;;;;;4732494;30;20053;-73
2021/10/25 13:55:06;;;;;;;17.38;6.55;;;18.90;70.70;;;;;;4718313;30;20060;-72
2021/10/25 13:57:37;;;;;;;17.92;7.05;;;18.90;71.00;;;;;;4718488;30;20137;-74
2021/10/25 14:00:05;;;;;;;19.80;7.68;;;18.90;70.80;;;;;;4718944;30;20454;-74
2021/10/25 14:02:31;;;;;;;17.67;7.65;;;18.90;70.40;;;;;;4717869;30;20084;-78
2021/10/25 14:04:58;;;;;;;17.95;7.28;;;18.90;70.30;;;;;;4729949;30;20065;-80
2021/10/25 14:07:34;;;;;;;13.63;7.10;;;18.90;70.30;;;;;;4720567;30;20072;-75
2021/10/25 14:10:11;;;;;;;18.02;6.60;;;18.80;70.20;;;;;;4736049;30;20052;-74
2021/10/25 14:12:38;;;;;;;16.40;7.13;;;18.90;70.30;;;;;;4720821;30;20457;-76
2021/10/25 14:15:25;;;;;;;15.25;7.28;;;18.90;70.20;;;;;;4736066;30;20157;-74
2021/10/25 14:17:52;;;;;;;17.55;7.25;;;18.90;70.10;;;;;;4720665;30;20067;-71
2021/10/25 14:20:20;;;;;;;16.60;7.68;;;18.90;69.90;;;;;;4720376;30;20118;-73
2021/10/25 14:22:47;;;;;;;15.10;7.65;;;19.00;69.70;;;;;;4735659;30;20053;-76
2021/10/25 14:25:13;;;;;;;18.63;8.00;;;18.90;69.50;;;;;;4736209;30;20057;-74
2021/10/25 14:27:39;;;;;;;18.65;7.45;;;18.90;69.50;;;;;;4736337;30;20113;-78
2021/10/25 14:30:07;;;;;;;16.88;7.45;;;18.90;69.60;;;;;;4721495;30;20135;-76
2021/10/25 14:32:33;;;;;;;13.80;7.13;;;19.00;69.60;;;;;;4725894;30;20045;-72
2021/10/25 14:34:59;;;;;;;21.15;8.65;;;19.00;69.70;;;;;;4702092;30;20060;-72
2021/10/25 14:37:33;;;;;;;16.83;8.07;;;19.00;69.40;;;;;;4718221;30;20049;-77
2021/10/25 14:40:02;;;;;;;;;;;19.00;69.50;;;;;;4721414;30;20083;-76
2021/10/25 14:42:30;;;;;;;15.00;7.18;;;19.00;69.80;;;;;;4721552;30;19970;-76
2021/10/25 14:57:47;;;;;;;14.38;7.32;;;19.10;70.00;;;;;;4737685;30;20065;-78
2021/10/25 15:00:13;;;;;;;14.60;7.13;;;19.10;70.00;;;;;;4726199;30;20049;-76
2021/10/25 15:02:39;;;;;;;13.80;7.38;;;19.10;69.90;;;;;;4741234;30;20064;-79
2021/10/25 15:05:10;;;;;;;20.83;7.32;;;19.10;69.90;;;;;;4738934;30;20358;-78
2021/10/25 15:07:43;;;;;;;16.55;7.10;;;19.10;69.90;;;;;;4723628;30;20053;-77
2021/10/25 15:10:12;;;;;;;14.95;7.82;;;19.00;70.00;;;;;;4705824;30;20053;-79
2021/10/25 15:12:38;;;;;;;19.35;7.75;;;19.00;70.20;;;;;;4721160;30;20130;-78
2021/10/25 15:15:06;;;;;;;22.85;7.32;;;19.00;70.40;;;;;;4721003;30;20053;-77
2021/10/25 15:17:32;;;;;;;20.92;7.03;;;19.00;70.60;;;;;;4721293;30;20165;-78
2021/10/25 15:19:58;;;;;;;18.23;6.28;;;19.00;70.70;;;;;;4728488;30;20072;-77
2021/10/25 15:22:24;;;;;;;28.73;9.70;;;18.70;68.50;;;;;;4737945;30;20198;-77
2021/10/25 15:24:54;;;;;;;37.42;10.30;;;18.80;70.30;;;;;;4738329;30;20129;-76
2021/10/25 15:27:22;;;;;;;32.17;11.05;;;18.70;70.50;;;;;;4735922;30;20053;-77
2021/10/25 15:29:50;;;;;;;38.65;11.35;;;18.80;70.20;;;;;;4738337;30;20457;-76
2021/10/25 15:32:19;;;;;;;30.25;10.93;;;18.80;70.20;;;;;;4738393;30;20492;-76
2021/10/25 15:34:45;;;;;;;40.33;11.00;;;18.80;70.30;;;;;;4737761;30;20092;-76
2021/10/25 15:37:16;;;;;;;38.13;10.13;;;18.80;70.30;;;;;;4722842;30;20492;-76
2021/10/25 15:39:42;;;;;;;30.88;10.35;;;18.80;70.40;;;;;;4721853;30;20242;-82
2021/10/25 15:42:13;;;;;;;42.33;11.63;;;18.80;70.30;;;;;;4708313;30;20052;-78
2021/10/25 15:44:42;;;;;;;31.38;9.85;;;18.80;70.10;;;;;;4700088;30;20115;-76
2021/10/25 15:47:09;;;;;;;27.20;9.55;;;18.80;70.20;;;;;;4722402;30;20048;-77
2021/10/25 15:49:35;;;;;;;28.63;10.48;;;18.80;70.20;;;;;;4722286;30;20044;-76
2021/10/25 15:52:01;;;;;;;30.98;9.45;;;18.80;70.40;;;;;;4737728;30;20406;-75
2021/10/25 15:54:27;;;;;;;27.45;8.93;;;18.80;70.30;;;;;;4738343;30;20056;-75
2021/10/25 15:56:53;;;;;;;26.35;9.48;;;18.80;70.30;;;;;;4737823;30;20424;-77
2021/10/25 15:59:18;;;;;;;29.35;8.75;;;18.80;70.50;;;;;;4734631;30;20056;-74
2021/10/25 16:01:45;;;;;;;26.15;8.68;;;18.70;70.60;;;;;;4737691;30;20068;-76
2021/10/25 16:04:13;;;;;;;25.30;8.60;;;18.70;70.90;;;;;;4737310;30;20076;-78
2021/10/25 16:06:39;;;;;;;20.58;9.02;;;18.80;71.00;;;;;;4738193;30;20130;-77
2021/10/25 16:09:05;;;;;;;21.48;8.63;;;18.80;71.00;;;;;;4737089;30;20069;-72
2021/10/25 16:11:30;;;;;;;16.95;8.55;;;18.80;71.00;;;;;;4736590;30;20044;-73
2021/10/25 16:13:56;;;;;;;27.08;9.30;;;18.90;71.10;;;;;;4737585;30;20117;-74
2021/10/25 16:16:22;;;;;;;23.80;10.15;;;18.90;71.00;;;;;;4737723;30;20354;-72
2021/10/25 16:18:48;;;;;;;37.67;11.98;;;18.80;70.60;;;;;;4736847;30;20135;-72
2021/10/25 16:21:14;;;;;;;26.10;10.30;;;18.80;70.80;;;;;;4737525;30;20057;-75
2021/10/25 16:23:40;;;;;;;30.52;11.30;;;18.80;71.00;;;;;;4737417;30;20052;-73
2021/10/25 16:26:06;;;;;;;35.35;10.60;;;18.80;71.00;;;;;;4737446;30;20052;-73
2021/10/25 16:28:32;;;;;;;25.33;10.63;;;18.70;71.00;;;;;;4737614;30;20083;-73
2021/10/25 16:30:57;;;;;;;29.65;11.10;;;18.70;71.20;;;;;;4737997;30;20052;-73
2021/10/25 16:33:27;;;;;;;29.92;10.65;;;18.70;71.40;;;;;;4737031;30;20157;-73
2021/10/25 16:35:53;;;;;;;30.40;11.15;;;18.60;71.40;;;;;;4729438;30;20049;-73
2021/10/25 16:38:19;;;;;;;32.20;11.35;;;18.60;71.60;;;;;;4720206;30;20067;-73
2021/10/25 16:40:46;;;;;;;35.45;11.75;;;18.60;71.80;;;;;;4719531;30;20068;-73
2021/10/25 16:43:17;;;;;;;28.90;10.27;;;18.60;71.90;;;;;;4720528;30;20064;-75
2021/10/25 16:45:46;;;;;;;30.88;10.45;;;18.50;71.40;;;;;;4719696;30;20086;-73
2021/10/25 16:48:15;;;;;;;30.80;10.52;;;18.50;71.80;;;;;;4719630;30;20057;-73
2021/10/25 16:50:47;;;;;;;25.90;10.27;;;18.50;72.10;;;;;;4719696;30;20097;-73
2021/10/25 16:55:58;;;;;;;26.52;10.35;;;18.50;72.50;;;;;;4719427;30;20057;-74
2021/10/25 17:04:09;;;;;;;24.95;10.77;;;18.40;73.00;;;;;;4719065;30;20504;-75
2021/10/25 17:09:29;;;;;;;28.13;10.60;;;18.40;72.90;;;;;;4719360;30;20065;-74
2021/10/25 17:11:56;;;;;;;22.02;11.27;;;18.40;72.70;;;;;;4719230;30;20061;-74
2021/10/25 17:14:23;;;;;;;24.65;11.60;;;18.30;72.40;;;;;;4719432;30;20082;-74
2021/10/25 17:16:50;;;;;;;25.85;11.10;;;18.30;72.30;;;;;;4718843;30;20057;-74
2021/10/25 17:19:16;;;;;;;22.23;11.55;;;18.30;72.20;;;;;;4719132;30;20059;-74
2021/10/25 17:21:44;;;;;;;21.08;11.43;;;18.30;72.10;;;;;;4718962;30;20053;-74
2021/10/25 17:24:10;;;;;;;26.90;11.40;;;18.20;72.10;;;;;;4719391;30;20056;-74
2021/10/25 17:26:38;;;;;;;19.60;10.30;;;18.20;72.00;;;;;;4718777;30;20061;-75
2021/10/25 17:29:05;;;;;;;23.58;11.85;;;18.20;72.00;;;;;;4719033;30;20568;-74
2021/10/25 17:31:32;;;;;;;21.77;10.57;;;18.20;72.00;;;;;;4718988;30;20377;-80
2021/10/25 17:33:58;;;;;;;32.08;13.02;;;18.20;71.90;;;;;;4719484;30;20390;-80
2021/10/25 17:36:24;;;;;;;24.92;11.75;;;18.20;72.10;;;;;;4719249;30;20052;-78
2021/10/25 17:38:50;;;;;;;25.58;12.70;;;18.10;71.60;;;;;;4689680;30;20442;-78
2021/10/25 17:41:18;;;;;;;26.15;12.07;;;18.10;71.70;;;;;;4718422;30;20198;-79
2021/10/25 17:43:44;;;;;;;23.98;11.82;;;18.10;71.90;;;;;;4719732;30;20057;-81
2021/10/25 17:46:10;;;;;;;26.35;12.48;;;18.10;72.00;;;;;;4718496;30;20378;-78
2021/10/25 17:48:36;;;;;;;21.77;12.02;;;18.10;72.00;;;;;;4719309;30;20068;-79
2021/10/25 17:51:02;;;;;;;21.60;11.93;;;18.10;72.00;;;;;;4712617;30;20103;-76
2021/10/25 17:53:28;;;;;;;20.63;12.38;;;18.10;72.00;;;;;;4719058;30;20057;-75
2021/10/25 17:55:55;;;;;;;18.48;11.95;;;18.10;72.00;;;;;;4718988;30;20336;-75
2021/10/25 17:58:21;;;;;;;25.73;12.90;;;18.10;71.90;;;;;;4718901;30;20053;-75
2021/10/25 18:00:52;;;;;;;18.45;11.55;;;18.00;71.80;;;;;;4718659;30;20068;-76
2021/10/25 18:03:18;;;;;;;20.25;12.05;;;18.00;71.80;;;;;;4718063;30;20073;-75
2021/10/25 18:05:44;;;;;;;18.38;12.93;;;18.00;71.80;;;;;;4718741;30;20523;-76
2021/10/25 18:08:14;;;;;;;21.13;12.52;;;18.00;71.80;;;;;;4719065;30;20049;-76
2021/10/25 18:10:48;;;;;;;19.20;11.88;;;18.00;71.70;;;;;;4703343;30;20489;-75
2021/10/25 18:13:15;;;;;;;26.30;17.20;;;18.00;71.70;;;;;;4718500;30;20477;-76
2021/10/25 18:15:45;;;;;;;30.98;21.58;;;18.00;71.60;;;;;;4726707;30;20068;-74
2021/10/25 18:18:12;;;;;;;26.73;18.60;;;18.00;71.20;;;;;;4739576;30;20049;-74
2021/10/25 18:20:40;;;;;;;23.50;15.68;;;17.90;71.00;;;;;;4739743;30;20071;-74
2021/10/25 18:23:07;;;;;;;21.52;13.95;;;17.80;71.20;;;;;;4724838;30;20469;-75
2021/10/25 18:25:33;;;;;;;20.73;14.85;;;17.70;71.50;;;;;;4721984;30;20061;-75
2021/10/25 18:28:00;;;;;;;22.30;14.70;;;17.60;71.70;;;;;;4721948;30;20149;-75
2021/10/25 18:30:26;;;;;;;23.17;16.17;;;17.50;71.90;;;;;;4721909;30;20052;-76
2021/10/25 18:32:52;;;;;;;28.35;17.08;;;17.50;72.00;;;;;;4721575;30;20057;-74
2021/10/25 18:35:18;;;;;;;22.02;15.77;;;17.40;72.00;;;;;;4722052;30;20060;-74
2021/10/25 18:37:44;;;;;;;25.40;16.38;;;17.30;72.00;;;;;;4721766;30;20049;-75
2021/10/25 18:40:11;;;;;;;25.00;16.65;;;17.30;72.20;;;;;;4721925;30;20053;-73
2021/10/25 18:42:37;;;;;;;23.80;16.33;;;17.30;72.30;;;;;;4721118;30;20064;-77
2021/10/25 18:45:05;;;;;;;24.63;15.30;;;17.40;72.60;;;;;;4721109;30;20129;-77
2021/10/25 18:47:36;;;;;;;21.65;14.98;;;17.40;72.60;;;;;;4720900;30;20083;-76
2021/10/25 18:50:03;;;;;;;21.85;13.63;;;17.40;72.60;;;;;;4721015;30;20071;-78
2021/10/25 18:52:30;;;;;;;24.65;16.85;;;17.50;72.40;;;;;;4721189;30;20494;-76
2021/10/25 18:54:55;;;;;;;25.55;16.73;;;17.50;72.10;;;;;;4721469;30;20489;-76
2021/10/25 18:57:23;;;;;;;22.63;16.98;;;17.60;71.80;;;;;;4720922;30;20049;-77
2021/10/25 18:59:49;;;;;;;25.48;19.13;;;17.60;71.60;;;;;;4699910;30;20128;-76
2021/10/25 19:02:17;;;;;;;27.35;20.73;;;17.60;71.10;;;;;;4719939;30;20135;-77
2021/10/25 19:04:45;;;;;;;27.08;22.20;;;17.60;70.50;;;;;;4720832;30;20508;-76
2021/10/25 19:07:11;;;;;;;27.30;22.92;;;17.60;70.30;;;;;;4721250;30;20085;-77
2021/10/25 19:09:37;;;;;;;25.92;23.13;;;17.60;70.10;;;;;;4721118;30;20107;-77
2021/10/25 19:12:03;;;;;;;29.08;24.30;;;17.60;69.80;;;;;;4721230;30;20061;-76
2021/10/25 19:14:33;;;;;;;29.13;24.17;;;17.70;69.70;;;;;;4721149;30;20100;-77
2021/10/25 19:16:58;;;;;;;27.10;24.05;;;17.60;69.40;;;;;;4720984;30;20060;-76
2021/10/25 19:19:24;;;;;;;29.55;24.92;;;17.70;69.30;;;;;;4721213;30;20049;-76
2021/10/25 19:21:50;;;;;;;26.13;22.95;;;17.70;69.80;;;;;;4720930;30;20056;-76
2021/10/25 19:24:16;;;;;;;28.50;24.45;;;17.70;69.00;;;;;;4720877;30;20053;-77
2021/10/25 19:26:43;;;;;;;29.55;24.30;;;17.70;68.70;;;;;;4719610;30;20053;-76
2021/10/25 19:29:11;;;;;;;28.98;24.83;;;17.60;68.60;;;;;;4721173;30;20136;-76
2021/10/25 19:31:39;;;;;;;29.02;25.42;;;17.60;68.50;;;;;;4705467;30;20082;-76
2021/10/25 19:34:05;;;;;;;28.92;24.85;;;17.60;68.40;;;;;;4721209;30;20197;-75
2021/10/25 19:36:32;;;;;;;31.40;25.23;;;17.60;68.30;;;;;;4720268;30;20520;-76
2021/10/25 19:38:58;;;;;;;33.95;25.40;;;17.60;68.30;;;;;;4720927;30;20049;-76
2021/10/25 19:41:26;;;;;;;30.08;24.42;;;17.60;68.40;;;;;;4720585;30;20072;-75
2021/10/25 19:43:52;;;;;;;30.10;25.17;;;17.60;68.40;;;;;;4720852;30;20135;-78
2021/10/25 19:46:19;;;;;;;30.90;24.48;;;17.60;68.50;;;;;;4705445;30;20374;-76
2021/10/25 19:48:45;;;;;;;31.88;24.45;;;17.60;68.60;;;;;;4705455;30;20064;-80
2021/10/25 19:51:10;;;;;;;26.40;21.60;;;17.50;68.90;;;;;;4720334;30;20061;-75
2021/10/25 19:53:38;;;;;;;25.80;21.83;;;17.50;69.00;;;;;;4720943;30;20144;-75
2021/10/25 19:56:04;;;;;;;25.35;21.80;;;17.50;69.20;;;;;;4719962;30;20131;-77
2021/10/25 19:58:31;;;;;;;25.35;20.60;;;17.50;69.40;;;;;;4715985;30;20048;-77
2021/10/25 20:00:58;;;;;;;26.67;21.38;;;17.50;69.60;;;;;;4737869;30;20053;-76
